Durham, Oregon
Current Conditions -  °F | °C
As of 1:11 AM on Friday 24 Oct 2014 (Local Time) from KHIO Reporting Station
Overcast Overcast  
Wind Chill: 50°   Ceiling: 3600
Heat Index: 50°   Visibility: 10mi
Dew Point: 50°   Wind: 0mph
Humidity: 100%   Direction: NA
Pressure: 30.03"   Gusts: NA
Location:  45.4077°N, 122.809°W
Report Text: KHIO 240811Z AUTO 00000KT 10SM SCT026 BKN036 OVC120 10/10 A3003 RMK AO2 T01000100 TSNO
Loading
Personal Weather Stations






























Interactive Weather Map
Tropical Storm Tracking
New forecast layout! Learn more

10-Day Weather Forecast

Advertisements
Track Severe Weather on mobile